sensor_id;sensor_type;location;lat;lon;timestamp;pressure;altitude;pressure_sealevel;temperature;humidity
37860;BME280;23698;52.014;5.190;2023-04-25T00:00:18;100886.03;;;6.64;100.00
37860;BME280;23698;52.014;5.190;2023-04-25T00:03:04;100884.00;;;6.66;100.00
37860;BME280;23698;52.014;5.190;2023-04-25T00:05:53;100885.84;;;6.57;100.00
37860;BME280;23698;52.014;5.190;2023-04-25T00:08:41;100882.00;;;6.59;100.00
37860;BME280;23698;52.014;5.190;2023-04-25T00:11:28;100892.41;;;6.54;100.00
37860;BME280;23698;52.014;5.190;2023-04-25T00:14:15;100889.53;;;6.48;100.00
37860;BME280;23698;52.014;5.190;2023-04-25T00:17:02;100898.94;;;6.43;100.00
37860;BME280;23698;52.014;5.190;2023-04-25T00:19:49;100899.09;;;6.42;100.00
37860;BME280;23698;52.014;5.190;2023-04-25T00:22:37;100915.72;;;6.29;100.00
37860;BME280;23698;52.014;5.190;2023-04-25T00:25:23;100914.91;;;6.37;100.00
37860;BME280;23698;52.014;5.190;2023-04-25T00:28:09;100901.19;;;6.65;100.00
37860;BME280;23698;52.014;5.190;2023-04-25T00:30:56;100916.66;;;6.54;100.00
37860;BME280;23698;52.014;5.190;2023-04-25T00:33:42;100911.97;;;6.65;100.00
37860;BME280;23698;52.014;5.190;2023-04-25T00:36:29;100915.38;;;6.75;100.00
37860;BME280;23698;52.014;5.190;2023-04-25T00:39:17;100920.44;;;6.78;100.00
37860;BME280;23698;52.014;5.190;2023-04-25T00:42:03;100922.25;;;6.77;100.00
37860;BME280;23698;52.014;5.190;2023-04-25T00:44:49;100918.44;;;7.05;100.00
37860;BME280;23698;52.014;5.190;2023-04-25T00:47:36;100911.53;;;7.10;100.00
37860;BME280;23698;52.014;5.190;2023-04-25T00:50:23;100922.16;;;6.95;100.00
37860;BME280;23698;52.014;5.190;2023-04-25T00:53:10;100930.41;;;6.94;100.00
37860;BME280;23698;52.014;5.190;2023-04-25T00:55:58;100931.34;;;6.68;100.00
37860;BME280;23698;52.014;5.190;2023-04-25T00:58:44;100930.81;;;6.65;100.00
37860;BME280;23698;52.014;5.190;2023-04-25T01:01:31;100936.69;;;6.60;100.00
37860;BME280;23698;52.014;5.190;2023-04-25T01:04:18;100941.28;;;6.68;100.00
37860;BME280;23698;52.014;5.190;2023-04-25T01:07:05;100943.75;;;6.53;100.00
37860;BME280;23698;52.014;5.190;2023-04-25T01:09:52;100940.81;;;6.30;100.00
37860;BME280;23698;52.014;5.190;2023-04-25T01:12:40;100938.66;;;6.41;100.00
37860;BME280;23698;52.014;5.190;2023-04-25T01:15:27;100946.03;;;6.39;100.00
37860;BME280;23698;52.014;5.190;2023-04-25T01:18:13;100945.41;;;6.46;100.00
37860;BME280;23698;52.014;5.190;2023-04-25T01:21:08;100944.38;;;6.38;100.00
37860;BME280;23698;52.014;5.190;2023-04-25T01:23:57;100954.13;;;6.39;100.00
37860;BME280;23698;52.014;5.190;2023-04-25T01:26:44;100950.03;;;6.27;100.00
37860;BME280;23698;52.014;5.190;2023-04-25T01:29:39;100952.56;;;6.29;100.00
37860;BME280;23698;52.014;5.190;2023-04-25T01:32:26;100951.00;;;6.18;100.00
37860;BME280;23698;52.014;5.190;2023-04-25T01:35:12;100948.38;;;6.00;100.00
37860;BME280;23698;52.014;5.190;2023-04-25T01:38:00;100953.63;;;6.01;100.00
37860;BME280;23698;52.014;5.190;2023-04-25T01:40:49;100951.66;;;5.94;100.00
37860;BME280;23698;52.014;5.190;2023-04-25T01:43:37;100952.06;;;5.99;100.00
37860;BME280;23698;52.014;5.190;2023-04-25T01:46:24;100964.38;;;6.01;100.00
37860;BME280;23698;52.014;5.190;2023-04-25T01:49:10;100968.53;;;5.96;100.00
37860;BME280;23698;52.014;5.190;2023-04-25T01:51:58;100964.03;;;6.04;100.00
37860;BME280;23698;52.014;5.190;2023-04-25T01:54:46;100965.72;;;6.05;100.00
37860;BME280;23698;52.014;5.190;2023-04-25T01:57:33;100977.56;;;6.13;100.00
37860;BME280;23698;52.014;5.190;2023-04-25T02:00:20;100974.47;;;5.99;100.00
37860;BME280;23698;52.014;5.190;2023-04-25T02:03:07;100983.91;;;6.03;100.00
37860;BME280;23698;52.014;5.190;2023-04-25T02:05:54;100982.97;;;5.95;100.00
37860;BME280;23698;52.014;5.190;2023-04-25T02:08:40;100994.81;;;6.02;100.00
37860;BME280;23698;52.014;5.190;2023-04-25T02:11:30;100986.91;;;6.00;100.00
37860;BME280;23698;52.014;5.190;2023-04-25T02:14:38;100993.72;;;5.95;100.00
37860;BME280;23698;52.014;5.190;2023-04-25T02:17:33;100992.59;;;5.97;100.00
37860;BME280;23698;52.014;5.190;2023-04-25T02:20:20;100990.41;;;6.01;100.00
37860;BME280;23698;52.014;5.190;2023-04-25T02:23:07;100988.34;;;5.95;100.00
37860;BME280;23698;52.014;5.190;2023-04-25T02:25:53;100983.94;;;5.85;100.00
37860;BME280;23698;52.014;5.190;2023-04-25T02:28:41;100988.50;;;5.93;100.00
37860;BME280;23698;52.014;5.190;2023-04-25T02:31:27;100987.88;;;5.73;100.00
37860;BME280;23698;52.014;5.190;2023-04-25T02:34:15;100982.53;;;5.81;100.00
37860;BME280;23698;52.014;5.190;2023-04-25T02:37:01;100985.97;;;5.92;100.00
37860;BME280;23698;52.014;5.190;2023-04-25T02:39:48;100987.75;;;5.83;100.00
37860;BME280;23698;52.014;5.190;2023-04-25T02:42:34;100986.25;;;5.80;100.00
37860;BME280;23698;52.014;5.190;2023-04-25T02:45:22;100992.16;;;5.84;100.00
37860;BME280;23698;52.014;5.190;2023-04-25T02:48:08;100988.94;;;5.62;100.00
37860;BME280;23698;52.014;5.190;2023-04-25T02:50:55;100983.13;;;5.49;100.00
37860;BME280;23698;52.014;5.190;2023-04-25T02:53:41;100970.13;;;5.62;100.00
37860;BME280;23698;52.014;5.190;2023-04-25T02:56:27;100975.38;;;5.46;100.00
37860;BME280;23698;52.014;5.190;2023-04-25T02:59:14;100980.09;;;5.52;100.00
37860;BME280;23698;52.014;5.190;2023-04-25T03:02:02;100988.06;;;5.18;100.00
37860;BME280;23698;52.014;5.190;2023-04-25T03:04:48;100985.50;;;5.34;100.00
37860;BME280;23698;52.014;5.190;2023-04-25T03:07:35;100987.13;;;5.45;100.00
37860;BME280;23698;52.014;5.190;2023-04-25T03:10:21;100990.94;;;5.60;100.00
37860;BME280;23698;52.014;5.190;2023-04-25T03:13:07;100986.50;;;5.51;100.00
37860;BME280;23698;52.014;5.190;2023-04-25T03:15:54;100987.78;;;5.65;100.00
37860;BME280;23698;52.014;5.190;2023-04-25T03:18:42;100985.66;;;5.95;100.00
37860;BME280;23698;52.014;5.190;2023-04-25T03:21:28;100984.47;;;6.15;100.00
37860;BME280;23698;52.014;5.190;2023-04-25T03:24:15;100990.22;;;6.20;100.00
37860;BME280;23698;52.014;5.190;2023-04-25T03:27:01;100996.13;;;6.24;100.00
37860;BME280;23698;52.014;5.190;2023-04-25T03:29:48;100997.38;;;6.38;100.00
37860;BME280;23698;52.014;5.190;2023-04-25T03:32:34;100993.81;;;6.29;100.00
37860;BME280;23698;52.014;5.190;2023-04-25T03:35:22;101013.03;;;6.42;100.00
37860;BME280;23698;52.014;5.190;2023-04-25T03:38:10;101017.88;;;6.04;100.00
37860;BME280;23698;52.014;5.190;2023-04-25T03:40:57;101016.63;;;5.55;100.00
37860;BME280;23698;52.014;5.190;2023-04-25T03:44:05;101016.31;;;5.22;100.00
37860;BME280;23698;52.014;5.190;2023-04-25T03:46:52;101011.16;;;5.64;100.00
37860;BME280;23698;52.014;5.190;2023-04-25T03:49:39;101016.09;;;5.95;100.00
37860;BME280;23698;52.014;5.190;2023-04-25T03:52:27;101018.53;;;5.80;100.00
37860;BME280;23698;52.014;5.190;2023-04-25T03:55:13;101025.41;;;5.83;100.00
37860;BME280;23698;52.014;5.190;2023-04-25T03:58:00;101024.34;;;6.20;100.00
37860;BME280;23698;52.014;5.190;2023-04-25T04:00:46;101021.06;;;6.69;100.00
37860;BME280;23698;52.014;5.190;2023-04-25T04:03:33;101035.28;;;6.45;100.00
37860;BME280;23698;52.014;5.190;2023-04-25T04:06:20;101045.13;;;6.28;100.00
37860;BME280;23698;52.014;5.190;2023-04-25T04:09:14;101051.56;;;6.35;100.00
37860;BME280;23698;52.014;5.190;2023-04-25T04:12:01;101045.84;;;6.64;100.00
37860;BME280;23698;52.014;5.190;2023-04-25T04:14:49;101049.09;;;6.84;100.00
37860;BME280;23698;52.014;5.190;2023-04-25T04:17:36;101051.81;;;6.84;100.00
37860;BME280;23698;52.014;5.190;2023-04-25T04:20:23;101051.13;;;6.82;100.00
37860;BME280;23698;52.014;5.190;2023-04-25T04:23:09;101059.78;;;6.59;100.00
37860;BME280;23698;52.014;5.190;2023-04-25T04:25:58;101065.97;;;6.52;100.00
37860;BME280;23698;52.014;5.190;2023-04-25T04:29:23;101070.75;;;6.66;100.00
37860;BME280;23698;52.014;5.190;2023-04-25T04:32:24;101076.25;;;6.91;100.00
37860;BME280;23698;52.014;5.190;2023-04-25T04:35:13;101076.72;;;6.86;100.00
37860;BME280;23698;52.014;5.190;2023-04-25T04:37:59;101082.53;;;6.65;100.00
37860;BME280;23698;52.014;5.190;2023-04-25T04:40:50;101081.84;;;6.63;100.00
37860;BME280;23698;52.014;5.190;2023-04-25T04:43:44;101087.03;;;6.56;100.00
37860;BME280;23698;52.014;5.190;2023-04-25T04:46:46;101087.69;;;6.50;100.00
37860;BME280;23698;52.014;5.190;2023-04-25T04:49:51;101087.34;;;6.27;100.00
37860;BME280;23698;52.014;5.190;2023-04-25T04:53:10;101082.00;;;6.35;100.00
37860;BME280;23698;52.014;5.190;2023-04-25T04:56:15;101088.28;;;6.18;100.00
37860;BME280;23698;52.014;5.190;2023-04-25T04:59:30;101083.94;;;5.99;100.00
37860;BME280;23698;52.014;5.190;2023-04-25T05:02:25;101090.53;;;6.22;100.00
37860;BME280;23698;52.014;5.190;2023-04-25T05:05:28;101097.47;;;6.59;100.00
37860;BME280;23698;52.014;5.190;2023-04-25T05:08:53;101093.06;;;6.06;100.00
37860;BME280;23698;52.014;5.190;2023-04-25T05:12:00;101096.81;;;6.13;100.00
37860;BME280;23698;52.014;5.190;2023-04-25T05:15:05;101105.50;;;6.77;100.00
37860;BME280;23698;52.014;5.190;2023-04-25T05:18:09;101107.38;;;6.51;100.00
37860;BME280;23698;52.014;5.190;2023-04-25T05:21:15;101118.44;;;6.74;100.00
37860;BME280;23698;52.014;5.190;2023-04-25T05:24:27;101124.50;;;6.76;100.00
37860;BME280;23698;52.014;5.190;2023-04-25T05:27:29;101120.31;;;7.08;100.00
37860;BME280;23698;52.014;5.190;2023-04-25T05:30:46;101135.63;;;7.58;100.00
37860;BME280;23698;52.014;5.190;2023-04-25T05:33:53;101148.56;;;7.04;100.00
37860;BME280;23698;52.014;5.190;2023-04-25T05:36:40;101147.97;;;7.69;100.00
37860;BME280;23698;52.014;5.190;2023-04-25T05:39:26;101147.28;;;7.75;100.00
37860;BME280;23698;52.014;5.190;2023-04-25T05:42:33;101154.06;;;7.28;100.00
37860;BME280;23698;52.014;5.190;2023-04-25T05:45:39;101151.78;;;7.42;100.00
37860;BME280;23698;52.014;5.190;2023-04-25T05:48:46;101156.38;;;7.74;100.00
37860;BME280;23698;52.014;5.190;2023-04-25T05:51:51;101152.22;;;8.21;100.00
37860;BME280;23698;52.014;5.190;2023-04-25T05:55:07;101159.69;;;8.60;100.00
37860;BME280;23698;52.014;5.190;2023-04-25T05:57:55;101161.63;;;8.99;100.00
37860;BME280;23698;52.014;5.190;2023-04-25T06:00:41;101175.91;;;8.60;100.00
37860;BME280;23698;52.014;5.190;2023-04-25T06:03:28;101175.38;;;8.64;100.00
37860;BME280;23698;52.014;5.190;2023-04-25T06:06:17;101184.97;;;8.83;100.00
37860;BME280;23698;52.014;5.190;2023-04-25T06:09:04;101178.59;;;8.60;100.00
37860;BME280;23698;52.014;5.190;2023-04-25T06:11:50;101194.94;;;8.66;100.00
37860;BME280;23698;52.014;5.190;2023-04-25T06:14:36;101182.22;;;9.00;100.00
37860;BME280;23698;52.014;5.190;2023-04-25T06:17:23;101196.63;;;8.84;100.00
37860;BME280;23698;52.014;5.190;2023-04-25T06:20:10;101196.00;;;9.30;100.00
37860;BME280;23698;52.014;5.190;2023-04-25T06:22:59;101210.38;;;9.22;100.00
37860;BME280;23698;52.014;5.190;2023-04-25T06:26:08;101212.69;;;9.41;100.00
37860;BME280;23698;52.014;5.190;2023-04-25T06:28:57;101223.44;;;9.10;100.00
37860;BME280;23698;52.014;5.190;2023-04-25T06:31:44;101235.81;;;9.52;100.00
37860;BME280;23698;52.014;5.190;2023-04-25T06:34:30;101242.50;;;10.04;100.00
37860;BME280;23698;52.014;5.190;2023-04-25T06:37:17;101253.13;;;10.14;100.00
37860;BME280;23698;52.014;5.190;2023-04-25T06:40:06;101259.72;;;10.11;100.00
37860;BME280;23698;52.014;5.190;2023-04-25T06:42:53;101268.78;;;9.95;100.00
37860;BME280;23698;52.014;5.190;2023-04-25T06:46:08;101277.66;;;10.67;100.00
37860;BME280;23698;52.014;5.190;2023-04-25T06:49:00;101287.84;;;10.65;100.00
37860;BME280;23698;52.014;5.190;2023-04-25T06:51:46;101289.13;;;10.92;100.00
37860;BME280;23698;52.014;5.190;2023-04-25T06:54:33;101292.97;;;11.21;100.00
37860;BME280;23698;52.014;5.190;2023-04-25T06:57:31;101297.25;;;11.15;100.00
37860;BME280;23698;52.014;5.190;2023-04-25T07:00:32;101304.06;;;11.11;100.00
37860;BME280;23698;52.014;5.190;2023-04-25T07:03:22;101302.25;;;10.65;100.00
37860;BME280;23698;52.014;5.190;2023-04-25T07:06:18;101301.66;;;11.76;100.00
37860;BME280;23698;52.014;5.190;2023-04-25T07:09:06;101311.13;;;11.35;100.00
37860;BME280;23698;52.014;5.190;2023-04-25T07:11:57;101311.94;;;10.83;100.00
37860;BME280;23698;52.014;5.190;2023-04-25T07:14:48;101316.66;;;10.89;100.00
37860;BME280;23698;52.014;5.190;2023-04-25T07:17:42;101321.38;;;10.87;100.00
37860;BME280;23698;52.014;5.190;2023-04-25T07:20:30;101318.19;;;10.83;100.00
37860;BME280;23698;52.014;5.190;2023-04-25T07:23:18;101316.19;;;9.99;100.00
37860;BME280;23698;52.014;5.190;2023-04-25T07:26:05;101317.69;;;10.65;100.00
37860;BME280;23698;52.014;5.190;2023-04-25T07:28:52;101322.16;;;10.57;100.00
37860;BME280;23698;52.014;5.190;2023-04-25T07:31:40;101326.06;;;11.16;100.00
37860;BME280;23698;52.014;5.190;2023-04-25T07:34:27;101318.16;;;11.59;100.00
37860;BME280;23698;52.014;5.190;2023-04-25T07:37:15;101338.59;;;11.55;100.00
37860;BME280;23698;52.014;5.190;2023-04-25T07:40:17;101335.06;;;11.17;100.00
37860;BME280;23698;52.014;5.190;2023-04-25T07:43:08;101342.44;;;10.30;100.00
37860;BME280;23698;52.014;5.190;2023-04-25T07:46:05;101338.06;;;9.81;100.00
37860;BME280;23698;52.014;5.190;2023-04-25T07:48:54;101358.81;;;9.58;100.00
37860;BME280;23698;52.014;5.190;2023-04-25T07:51:40;101344.47;;;8.75;100.00
37860;BME280;23698;52.014;5.190;2023-04-25T07:54:30;101337.91;;;9.11;100.00
37860;BME280;23698;52.014;5.190;2023-04-25T07:57:23;101343.41;;;9.50;100.00
37860;BME280;23698;52.014;5.190;2023-04-25T08:00:13;101335.84;;;9.93;100.00
37860;BME280;23698;52.014;5.190;2023-04-25T08:03:05;101340.00;;;10.12;100.00
37860;BME280;23698;52.014;5.190;2023-04-25T08:05:53;101349.09;;;10.19;100.00
37860;BME280;23698;52.014;5.190;2023-04-25T08:08:42;101351.47;;;10.77;100.00
37860;BME280;23698;52.014;5.190;2023-04-25T08:11:31;101355.50;;;11.04;100.00
37860;BME280;23698;52.014;5.190;2023-04-25T08:14:18;101360.81;;;11.21;100.00
37860;BME280;23698;52.014;5.190;2023-04-25T08:17:05;101362.06;;;11.48;100.00
37860;BME280;23698;52.014;5.190;2023-04-25T08:19:58;101371.16;;;11.55;100.00
37860;BME280;23698;52.014;5.190;2023-04-25T08:22:48;101387.72;;;10.84;100.00
37860;BME280;23698;52.014;5.190;2023-04-25T08:26:01;101383.72;;;10.72;100.00
37860;BME280;23698;52.014;5.190;2023-04-25T08:28:52;101400.66;;;10.43;100.00
37860;BME280;23698;52.014;5.190;2023-04-25T08:31:40;101396.16;;;10.89;100.00
37860;BME280;23698;52.014;5.190;2023-04-25T08:34:28;101403.34;;;11.43;100.00
37860;BME280;23698;52.014;5.190;2023-04-25T08:37:16;101401.41;;;11.52;100.00
37860;BME280;23698;52.014;5.190;2023-04-25T08:40:14;101416.63;;;11.91;100.00
37860;BME280;23698;52.014;5.190;2023-04-25T08:43:13;101410.78;;;11.79;100.00
37860;BME280;23698;52.014;5.190;2023-04-25T08:46:00;101411.25;;;11.68;100.00
37860;BME280;23698;52.014;5.190;2023-04-25T08:49:01;101425.19;;;11.27;100.00
37860;BME280;23698;52.014;5.190;2023-04-25T08:51:49;101430.75;;;10.87;100.00
37860;BME280;23698;52.014;5.190;2023-04-25T08:54:42;101440.38;;;10.19;100.00
37860;BME280;23698;52.014;5.190;2023-04-25T08:57:31;101434.47;;;10.55;100.00
37860;BME280;23698;52.014;5.190;2023-04-25T09:00:21;101440.50;;;10.73;100.00
37860;BME280;23698;52.014;5.190;2023-04-25T09:03:08;101440.91;;;11.17;100.00
37860;BME280;23698;52.014;5.190;2023-04-25T09:05:55;101450.84;;;11.01;100.00
37860;BME280;23698;52.014;5.190;2023-04-25T09:08:41;101451.34;;;11.81;100.00
37860;BME280;23698;52.014;5.190;2023-04-25T09:11:28;101453.91;;;10.98;100.00
37860;BME280;23698;52.014;5.190;2023-04-25T09:14:19;101451.81;;;11.84;100.00
37860;BME280;23698;52.014;5.190;2023-04-25T09:17:32;101460.25;;;12.13;100.00
37860;BME280;23698;52.014;5.190;2023-04-25T09:20:19;101471.50;;;11.02;100.00
37860;BME280;23698;52.014;5.190;2023-04-25T09:23:05;101469.56;;;10.56;100.00
37860;BME280;23698;52.014;5.190;2023-04-25T09:25:54;101468.56;;;11.12;100.00
37860;BME280;23698;52.014;5.190;2023-04-25T09:28:41;101477.06;;;11.09;100.00
37860;BME280;23698;52.014;5.190;2023-04-25T09:31:29;101475.78;;;11.20;100.00
37860;BME280;23698;52.014;5.190;2023-04-25T09:34:19;101488.53;;;11.42;100.00
37860;BME280;23698;52.014;5.190;2023-04-25T09:37:12;101483.63;;;11.61;100.00
37860;BME280;23698;52.014;5.190;2023-04-25T09:40:30;101493.38;;;11.70;100.00
37860;BME280;23698;52.014;5.190;2023-04-25T09:43:28;101488.22;;;11.60;100.00
37860;BME280;23698;52.014;5.190;2023-04-25T09:46:14;101491.22;;;12.78;100.00
37860;BME280;23698;52.014;5.190;2023-04-25T09:49:08;101494.66;;;12.87;100.00
37860;BME280;23698;52.014;5.190;2023-04-25T09:52:15;101495.47;;;12.36;100.00
37860;BME280;23698;52.014;5.190;2023-04-25T09:55:33;101508.22;;;11.82;100.00
37860;BME280;23698;52.014;5.190;2023-04-25T09:58:21;101515.13;;;11.47;100.00
37860;BME280;23698;52.014;5.190;2023-04-25T10:01:10;101511.25;;;10.55;100.00
37860;BME280;23698;52.014;5.190;2023-04-25T10:04:12;101526.47;;;10.65;100.00
37860;BME280;23698;52.014;5.190;2023-04-25T10:07:14;101527.22;;;10.42;100.00
37860;BME280;23698;52.014;5.190;2023-04-25T10:10:04;101530.59;;;10.44;100.00
37860;BME280;23698;52.014;5.190;2023-04-25T10:12:51;101527.75;;;10.21;100.00
37860;BME280;23698;52.014;5.190;2023-04-25T10:15:38;101538.44;;;10.06;100.00
37860;BME280;23698;52.014;5.190;2023-04-25T10:18:26;101544.53;;;10.33;100.00
37860;BME280;23698;52.014;5.190;2023-04-25T10:21:14;101538.91;;;10.26;100.00
37860;BME280;23698;52.014;5.190;2023-04-25T10:24:02;101543.66;;;10.41;100.00
37860;BME280;23698;52.014;5.190;2023-04-25T10:26:49;101537.56;;;10.78;100.00
37860;BME280;23698;52.014;5.190;2023-04-25T10:29:36;101547.50;;;10.54;100.00
37860;BME280;23698;52.014;5.190;2023-04-25T10:32:22;101540.69;;;11.06;100.00
37860;BME280;23698;52.014;5.190;2023-04-25T10:35:12;101541.47;;;11.15;100.00
37860;BME280;23698;52.014;5.190;2023-04-25T10:38:03;101548.38;;;11.49;100.00
37860;BME280;23698;52.014;5.190;2023-04-25T10:41:02;101552.72;;;11.81;100.00
37860;BME280;23698;52.014;5.190;2023-04-25T10:43:59;101555.44;;;12.19;100.00
37860;BME280;23698;52.014;5.190;2023-04-25T10:46:46;101554.44;;;12.35;100.00
37860;BME280;23698;52.014;5.190;2023-04-25T10:49:34;101559.81;;;12.58;100.00
37860;BME280;23698;52.014;5.190;2023-04-25T10:52:25;101552.09;;;12.77;100.00
37860;BME280;23698;52.014;5.190;2023-04-25T10:55:14;101552.00;;;12.70;100.00
37860;BME280;23698;52.014;5.190;2023-04-25T10:58:01;101549.22;;;13.15;100.00
37860;BME280;23698;52.014;5.190;2023-04-25T11:00:49;101555.38;;;12.27;100.00
37860;BME280;23698;52.014;5.190;2023-04-25T11:03:42;101551.28;;;13.13;100.00
37860;BME280;23698;52.014;5.190;2023-04-25T11:06:36;101553.44;;;13.32;100.00
37860;BME280;23698;52.014;5.190;2023-04-25T11:09:28;101547.97;;;12.81;100.00
37860;BME280;23698;52.014;5.190;2023-04-25T11:12:16;101547.66;;;13.85;100.00
37860;BME280;23698;52.014;5.190;2023-04-25T11:15:04;101544.75;;;14.85;100.00
37860;BME280;23698;52.014;5.190;2023-04-25T11:17:51;101547.66;;;15.25;100.00
37860;BME280;23698;52.014;5.190;2023-04-25T11:20:38;101540.72;;;13.39;100.00
37860;BME280;23698;52.014;5.190;2023-04-25T11:23:25;101538.13;;;12.65;100.00
37860;BME280;23698;52.014;5.190;2023-04-25T11:26:12;101555.59;;;13.37;100.00
37860;BME280;23698;52.014;5.190;2023-04-25T11:29:00;101563.81;;;14.15;100.00
37860;BME280;23698;52.014;5.190;2023-04-25T11:31:46;101557.19;;;13.16;100.00
37860;BME280;23698;52.014;5.190;2023-04-25T11:34:33;101564.25;;;12.06;100.00
37860;BME280;23698;52.014;5.190;2023-04-25T11:37:19;101570.16;;;12.10;100.00
37860;BME280;23698;52.014;5.190;2023-04-25T11:40:07;101578.84;;;12.88;100.00
37860;BME280;23698;52.014;5.190;2023-04-25T11:42:54;101573.22;;;13.41;100.00
37860;BME280;23698;52.014;5.190;2023-04-25T11:45:46;101580.72;;;13.24;100.00
37860;BME280;23698;52.014;5.190;2023-04-25T11:48:37;101577.13;;;13.02;100.00
37860;BME280;23698;52.014;5.190;2023-04-25T11:51:23;101572.19;;;13.27;100.00
37860;BME280;23698;52.014;5.190;2023-04-25T11:54:10;101583.72;;;13.66;100.00
37860;BME280;23698;52.014;5.190;2023-04-25T11:56:57;101578.63;;;13.77;100.00
37860;BME280;23698;52.014;5.190;2023-04-25T11:59:43;101585.56;;;13.58;100.00
37860;BME280;23698;52.014;5.190;2023-04-25T12:02:31;101585.53;;;13.80;100.00
37860;BME280;23698;52.014;5.190;2023-04-25T12:05:24;101591.44;;;14.05;100.00
37860;BME280;23698;52.014;5.190;2023-04-25T12:08:17;101599.97;;;13.74;100.00
37860;BME280;23698;52.014;5.190;2023-04-25T12:11:03;101600.53;;;12.14;100.00
37860;BME280;23698;52.014;5.190;2023-04-25T12:13:51;101613.81;;;10.91;100.00
37860;BME280;23698;52.014;5.190;2023-04-25T12:16:42;101613.50;;;10.86;100.00
37860;BME280;23698;52.014;5.190;2023-04-25T12:19:33;101627.00;;;10.47;100.00
37860;BME280;23698;52.014;5.190;2023-04-25T12:22:21;101618.00;;;10.54;100.00
37860;BME280;23698;52.014;5.190;2023-04-25T12:25:08;101617.91;;;10.87;100.00
37860;BME280;23698;52.014;5.190;2023-04-25T12:28:08;101609.53;;;10.49;100.00
37860;BME280;23698;52.014;5.190;2023-04-25T12:30:56;101614.13;;;10.24;100.00
37860;BME280;23698;52.014;5.190;2023-04-25T12:33:43;101610.38;;;10.25;100.00
37860;BME280;23698;52.014;5.190;2023-04-25T12:36:34;101615.00;;;10.33;100.00
37860;BME280;23698;52.014;5.190;2023-04-25T12:39:21;101623.94;;;11.06;100.00
37860;BME280;23698;52.014;5.190;2023-04-25T12:42:09;101607.22;;;11.80;100.00
37860;BME280;23698;52.014;5.190;2023-04-25T12:44:57;101616.63;;;12.53;100.00
37860;BME280;23698;52.014;5.190;2023-04-25T12:47:44;101618.66;;;11.98;100.00
37860;BME280;23698;52.014;5.190;2023-04-25T12:50:30;101619.16;;;12.55;100.00
37860;BME280;23698;52.014;5.190;2023-04-25T12:53:19;101617.09;;;12.72;100.00
37860;BME280;23698;52.014;5.190;2023-04-25T12:56:06;101612.66;;;12.26;100.00
37860;BME280;23698;52.014;5.190;2023-04-25T12:58:52;101616.91;;;13.03;100.00
37860;BME280;23698;52.014;5.190;2023-04-25T13:01:39;101623.28;;;12.36;100.00
37860;BME280;23698;52.014;5.190;2023-04-25T13:04:25;101615.41;;;12.56;100.00
37860;BME280;23698;52.014;5.190;2023-04-25T13:07:12;101620.59;;;12.65;100.00
37860;BME280;23698;52.014;5.190;2023-04-25T13:09:59;101616.38;;;12.78;100.00
37860;BME280;23698;52.014;5.190;2023-04-25T13:12:47;101618.13;;;12.85;100.00
37860;BME280;23698;52.014;5.190;2023-04-25T13:15:34;101617.00;;;12.65;100.00
37860;BME280;23698;52.014;5.190;2023-04-25T13:18:20;101613.34;;;12.43;100.00
37860;BME280;23698;52.014;5.190;2023-04-25T13:21:11;101610.97;;;13.66;100.00
37860;BME280;23698;52.014;5.190;2023-04-25T13:23:57;101610.06;;;13.80;100.00
37860;BME280;23698;52.014;5.190;2023-04-25T13:26:45;101609.38;;;13.20;100.00
37860;BME280;23698;52.014;5.190;2023-04-25T13:29:31;101612.97;;;13.06;100.00
37860;BME280;23698;52.014;5.190;2023-04-25T13:32:19;101618.97;;;14.10;100.00
37860;BME280;23698;52.014;5.190;2023-04-25T13:35:07;101616.94;;;13.54;94.41
37860;BME280;23698;52.014;5.190;2023-04-25T13:37:55;101617.53;;;14.43;100.00
37860;BME280;23698;52.014;5.190;2023-04-25T13:40:42;101631.09;;;14.29;91.64
37860;BME280;23698;52.014;5.190;2023-04-25T13:43:29;101630.44;;;13.63;83.91
37860;BME280;23698;52.014;5.190;2023-04-25T13:46:19;101620.38;;;14.56;89.67
37860;BME280;23698;52.014;5.190;2023-04-25T13:49:25;101617.78;;;15.18;92.32
37860;BME280;23698;52.014;5.190;2023-04-25T13:52:11;101623.22;;;15.66;91.01
37860;BME280;23698;52.014;5.190;2023-04-25T13:54:58;101635.22;;;14.47;87.91
37860;BME280;23698;52.014;5.190;2023-04-25T13:57:46;101630.00;;;14.02;85.19
37860;BME280;23698;52.014;5.190;2023-04-25T14:00:38;101627.47;;;13.28;90.93
37860;BME280;23698;52.014;5.190;2023-04-25T14:03:25;101632.28;;;13.26;92.47
37860;BME280;23698;52.014;5.190;2023-04-25T14:06:12;101631.94;;;12.99;91.59
37860;BME280;23698;52.014;5.190;2023-04-25T14:08:58;101643.44;;;12.56;95.77
37860;BME280;23698;52.014;5.190;2023-04-25T14:11:46;101627.16;;;13.01;100.00
37860;BME280;23698;52.014;5.190;2023-04-25T14:14:32;101639.72;;;13.02;100.00
37860;BME280;23698;52.014;5.190;2023-04-25T14:17:21;101642.19;;;12.29;100.00
37860;BME280;23698;52.014;5.190;2023-04-25T14:20:08;101641.31;;;11.82;100.00
37860;BME280;23698;52.014;5.190;2023-04-25T14:22:56;101645.13;;;12.04;100.00
37860;BME280;23698;52.014;5.190;2023-04-25T14:25:43;101639.19;;;11.46;100.00
37860;BME280;23698;52.014;5.190;2023-04-25T14:28:29;101635.28;;;12.56;100.00
37860;BME280;23698;52.014;5.190;2023-04-25T14:31:16;101634.66;;;12.84;100.00
37860;BME280;23698;52.014;5.190;2023-04-25T14:34:04;101628.13;;;13.45;100.00
37860;BME280;23698;52.014;5.190;2023-04-25T14:36:51;101638.38;;;13.43;100.00
37860;BME280;23698;52.014;5.190;2023-04-25T14:39:38;101634.63;;;12.39;100.00
37860;BME280;23698;52.014;5.190;2023-04-25T14:42:25;101633.91;;;11.76;100.00
37860;BME280;23698;52.014;5.190;2023-04-25T14:45:11;101650.88;;;11.15;100.00